Time;durP1;ratioP1;P1;durP2;ratioP2;P2;SDS_P1;SDS_P2;PMS_P1;PMS_P2;Temp;Humidity;BMP_temperature;BMP_pressure;BME280_temperature;BME280_humidity;BME280_pressure;Samples;Min_cycle;Max_cycle;Signal;HPM_P1;HPM_P2
2024/03/11 00:02:20;;;;;;;12.10;8.10;;;;;;;4.99;60.04;99759.73;103872;1253;109664;-75
2024/03/11 00:04:47;;;;;;;15.50;9.80;;;;;;;4.97;59.96;99761.49;103440;1259;108513;-74
2024/03/11 00:07:15;;;;;;;13.60;9.10;;;;;;;4.97;59.96;99758.91;103705;1256;137119;-73
2024/03/11 00:09:44;;;;;;;14.80;9.20;;;;;;;4.96;59.70;99762.04;103804;1253;107365;-74
2024/03/11 00:12:11;;;;;;;14.60;9.10;;;;;;;4.96;59.82;99768.40;104309;1252;138653;-75
2024/03/11 00:14:47;;;;;;;14.80;8.30;;;;;;;4.95;59.96;99759.12;104244;1250;110427;-74
2024/03/11 00:17:14;;;;;;;14.50;8.30;;;;;;;4.94;59.74;99755.69;103550;1252;139081;-75
2024/03/11 00:19:42;;;;;;;14.70;8.90;;;;;;;4.94;59.65;99761.04;103447;1254;96347;-75
2024/03/11 00:22:09;;;;;;;16.00;9.00;;;;;;;4.95;59.40;99759.98;103486;1256;107441;-74
2024/03/11 00:24:36;;;;;;;13.40;8.60;;;;;;;4.93;59.51;99762.78;103412;1254;138493;-76
2024/03/11 00:27:03;;;;;;;13.70;8.70;;;;;;;4.92;59.59;99761.41;103841;1253;110697;-76
2024/03/11 00:29:30;;;;;;;12.20;8.60;;;;;;;4.91;59.55;99762.66;103414;1251;138681;-76
2024/03/11 00:31:57;;;;;;;13.50;8.50;;;;;;;4.90;59.10;99758.89;103699;1256;96344;-76
2024/03/11 00:34:26;;;;;;;12.60;8.60;;;;;;;4.90;59.41;99759.05;104435;1250;107264;-76
2024/03/11 00:36:53;;;;;;;12.80;9.10;;;;;;;4.85;59.37;99761.02;104288;1254;140994;-75
2024/03/11 00:39:20;;;;;;;14.20;8.60;;;;;;;4.85;59.13;99754.30;104140;1254;110280;-75
2024/03/11 00:41:47;;;;;;;12.10;8.50;;;;;;;4.85;58.97;99751.54;103730;1253;140485;-75
2024/03/11 00:44:15;;;;;;;12.60;8.30;;;;;;;4.83;59.19;99752.42;102812;1253;1002855;-75
2024/03/11 00:46:43;;;;;;;16.40;8.90;;;;;;;4.82;58.83;99746.58;104024;1254;107226;-75
2024/03/11 00:49:10;;;;;;;13.60;8.10;;;;;;;4.81;58.88;99748.66;103537;1251;137842;-74
2024/03/11 00:51:37;;;;;;;12.50;8.80;;;;;;;4.80;58.99;99744.38;103581;1253;109530;-74
2024/03/11 00:54:05;;;;;;;14.20;8.60;;;;;;;4.81;58.94;99738.67;103530;1251;137846;-74
2024/03/11 00:56:32;;;;;;;13.30;8.00;;;;;;;4.82;58.75;99735.57;103910;1254;96542;-74
2024/03/11 00:58:59;;;;;;;13.80;8.50;;;;;;;4.82;58.53;99742.95;103565;1256;108638;-73
2024/03/11 01:01:26;;;;;;;13.10;8.60;;;;;;;4.83;58.39;99738.30;103617;1251;96341;-73
2024/03/11 01:03:54;;;;;;;14.80;9.20;;;;;;;4.82;58.21;99740.02;103618;1256;109990;-73
2024/03/11 01:06:21;;;;;;;13.50;8.90;;;;;;;4.80;58.32;99736.63;103468;1253;137346;-73
2024/03/11 01:08:48;;;;;;;16.10;9.20;;;;;;;4.77;58.27;99743.56;102786;1256;1003660;-73
2024/03/11 01:11:15;;;;;;;15.10;9.10;;;;;;;4.76;58.26;99734.48;103547;1253;138168;-73
2024/03/11 01:13:45;;;;;;;14.50;8.90;;;;;;;4.75;58.30;99737.75;103991;1251;96516;-73
2024/03/11 01:16:13;;;;;;;15.30;9.00;;;;;;;4.74;58.14;99744.66;103569;1256;109498;-74
2024/03/11 01:18:40;;;;;;;17.10;9.10;;;;;;;4.74;58.00;99735.20;103441;1256;137120;-74
2024/03/11 01:21:07;;;;;;;14.00;9.10;;;;;;;4.74;58.07;99730.71;103648;1255;96341;-74
2024/03/11 01:23:35;;;;;;;15.20;9.10;;;;;;;4.73;58.10;99727.28;103491;1254;138269;-73
2024/03/11 01:26:06;;;;;;;15.20;8.80;;;;;;;4.73;57.93;99731.60;103472;1256;96460;-74
2024/03/11 01:28:33;;;;;;;13.60;8.60;;;;;;;4.72;57.66;99723.34;103546;1259;108747;-74
2024/03/11 01:31:04;;;;;;;13.40;8.80;;;;;;;4.72;57.90;99723.86;103384;1254;137079;-74
2024/03/11 01:33:31;;;;;;;15.20;8.90;;;;;;;4.72;57.59;99731.10;103526;1254;96435;-74
2024/03/11 01:35:59;;;;;;;16.10;9.10;;;;;;;4.71;57.63;99719.92;103429;1256;136968;-73
2024/03/11 01:38:26;;;;;;;14.50;9.20;;;;;;;4.70;57.59;99715.81;103540;1256;97152;-72
2024/03/11 01:40:53;;;;;;;15.40;10.10;;;;;;;4.69;57.32;99720.64;103505;1256;110452;-72
2024/03/11 01:43:20;;;;;;;15.20;8.90;;;;;;;4.68;57.31;99713.95;103577;1254;108566;-73
2024/03/11 01:45:48;;;;;;;16.90;8.90;;;;;;;4.67;57.41;99725.83;103624;1256;96361;-73
2024/03/11 01:48:15;;;;;;;16.00;9.40;;;;;;;4.66;57.34;99717.75;103428;1255;137110;-72
2024/03/11 01:50:43;;;;;;;12.60;8.70;;;;;;;4.65;57.12;99720.52;103557;1256;96338;-73
2024/03/11 01:53:11;;;;;;;13.10;8.60;;;;;;;4.62;57.24;99729.87;103415;1256;140323;-73
2024/03/11 01:55:38;;;;;;;15.70;9.80;;;;;;;4.60;56.97;99721.65;103613;1254;107295;-73
2024/03/11 01:58:09;;;;;;;15.90;9.20;;;;;;;4.60;57.09;99713.38;103484;1255;96441;-74
2024/03/11 02:00:37;;;;;;;14.70;9.50;;;;;;;4.60;57.04;99709.75;103533;1257;137008;-74
2024/03/11 02:03:06;;;;;;;15.70;10.00;;;;;;;4.59;57.02;99708.92;103583;1254;96462;-75
2024/03/11 02:05:34;;;;;;;15.20;9.50;;;;;;;4.58;57.12;99707.04;103518;1254;137389;-74
2024/03/11 02:08:02;;;;;;;19.50;9.70;;;;;;;4.58;57.05;99719.78;104815;1254;108122;-75
2024/03/11 02:10:30;;;;;;;17.20;9.50;;;;;;;4.58;57.13;99705.67;103636;1256;96659;-74
2024/03/11 02:12:59;;;;;;;16.20;9.20;;;;;;;4.56;56.83;99702.95;103380;1259;140585;-74
2024/03/11 02:15:27;;;;;;;16.60;9.50;;;;;;;4.56;56.95;99700.54;103506;1254;96436;-74
2024/03/11 02:17:54;;;;;;;14.80;9.10;;;;;;;4.56;56.84;99699.84;103456;1256;137925;-75
2024/03/11 02:20:22;;;;;;;13.20;9.10;;;;;;;4.57;56.78;99707.41;103558;1254;107332;-74
2024/03/11 02:22:52;;;;;;;16.10;9.60;;;;;;;4.55;56.77;99703.14;103571;1256;97787;-74
2024/03/11 02:25:21;;;;;;;14.30;9.60;;;;;;;4.54;56.72;99707.12;103513;1255;136909;-74
2024/03/11 02:27:49;;;;;;;15.50;9.60;;;;;;;4.51;56.55;99702.17;103445;1264;96440;-74
2024/03/11 02:30:17;;;;;;;14.40;9.40;;;;;;;4.52;56.75;99702.85;103534;1254;137935;-74
2024/03/11 02:32:44;;;;;;;15.80;9.60;;;;;;;4.49;56.93;99698.23;103471;1256;107300;-74
2024/03/11 02:35:12;;;;;;;18.60;9.80;;;;;;;4.47;56.82;99704.63;103526;1253;138879;-74
2024/03/11 02:37:43;;;;;;;18.20;10.20;;;;;;;4.46;56.78;99701.37;103577;1252;107461;-75
2024/03/11 02:40:13;;;;;;;18.80;10.30;;;;;;;4.47;56.77;99697.23;103627;1254;96431;-74
2024/03/11 02:42:40;;;;;;;15.00;9.60;;;;;;;4.47;56.68;99699.98;103854;1255;138957;-74
2024/03/11 02:45:09;;;;;;;17.50;9.80;;;;;;;4.47;56.89;99695.85;103587;1254;107989;-74
2024/03/11 02:47:36;;;;;;;14.90;10.10;;;;;;;4.46;56.80;99689.16;103560;1256;137359;-74
2024/03/11 02:50:05;;;;;;;15.90;10.30;;;;;;;4.45;56.91;99688.14;103523;1253;108285;-73
2024/03/11 02:52:33;;;;;;;15.90;9.70;;;;;;;4.43;56.99;99683.70;103568;1253;96339;-74
2024/03/11 02:55:00;;;;;;;17.40;10.30;;;;;;;4.43;56.85;99681.63;102752;1257;1003040;-74
2024/03/11 02:57:28;;;;;;;17.40;10.00;;;;;;;4.43;56.81;99684.22;103520;1253;107914;-74
2024/03/11 02:59:54;;;;;;;18.20;10.90;;;;;;;4.42;56.92;99683.03;103483;1256;137350;-74
2024/03/11 03:02:23;;;;;;;18.40;10.60;;;;;;;4.40;57.16;99685.46;103567;1256;108203;-73
2024/03/11 03:04:50;;;;;;;17.00;9.70;;;;;;;4.40;56.94;99691.52;103656;1256;97132;-73
2024/03/11 03:07:19;;;;;;;14.70;9.40;;;;;;;4.37;56.97;99689.31;103426;1257;136905;-73
2024/03/11 03:09:46;;;;;;;15.30;9.00;;;;;;;4.34;57.22;99692.81;103581;1255;107468;-73
2024/03/11 03:12:14;;;;;;;16.40;9.90;;;;;;;4.32;57.23;99698.52;103448;1255;137337;-73
2024/03/11 03:14:41;;;;;;;17.20;9.80;;;;;;;4.32;57.07;99687.67;103656;1254;107901;-74
2024/03/11 03:17:09;;;;;;;17.70;9.80;;;;;;;4.32;56.95;99685.44;103449;1251;137519;-73
2024/03/11 03:19:36;;;;;;;15.90;9.70;;;;;;;4.31;57.10;99680.10;103557;1257;111331;-73
2024/03/11 03:22:03;;;;;;;16.50;9.90;;;;;;;4.31;56.85;99671.50;103436;1256;107052;-73
2024/03/11 03:24:30;;;;;;;15.10;9.40;;;;;;;4.31;56.91;99673.23;103430;1257;137496;-74
2024/03/11 03:26:56;;;;;;;17.20;9.80;;;;;;;4.30;56.98;99670.12;103586;1254;108473;-73
2024/03/11 03:29:24;;;;;;;13.40;9.40;;;;;;;4.30;57.05;99672.55;103432;1253;137582;-73
2024/03/11 03:31:51;;;;;;;14.80;9.80;;;;;;;4.26;57.25;99663.83;103564;1254;109481;-73
2024/03/11 03:34:18;;;;;;;14.80;9.70;;;;;;;4.23;57.07;99674.54;103508;1255;107285;-73
2024/03/11 03:36:45;;;;;;;15.40;9.70;;;;;;;4.21;57.21;99673.05;103471;1257;137627;-73
2024/03/11 03:39:12;;;;;;;15.20;9.10;;;;;;;4.19;57.30;99669.64;103566;1256;107396;-73
2024/03/11 03:41:39;;;;;;;15.50;9.30;;;;;;;4.18;57.33;99673.95;103414;1256;137393;-73
2024/03/11 03:44:06;;;;;;;17.30;8.80;;;;;;;4.17;57.18;99675.86;103563;1255;109746;-74
2024/03/11 03:46:35;;;;;;;14.90;9.80;;;;;;;4.16;57.27;99678.11;104022;1254;108805;-74
2024/03/11 03:49:02;;;;;;;16.30;10.00;;;;;;;4.18;57.14;99682.39;103913;1252;137753;-74
2024/03/11 03:51:29;;;;;;;14.80;9.80;;;;;;;4.16;57.12;99685.68;103959;1255;107084;-74
2024/03/11 03:53:57;;;;;;;20.60;10.20;;;;;;;4.13;57.33;99684.35;103651;1254;137704;-74
2024/03/11 03:56:25;;;;;;;15.60;9.80;;;;;;;4.10;57.22;99684.55;104214;1251;109013;-73
2024/03/11 03:58:52;;;;;;;16.20;9.80;;;;;;;4.08;57.31;99699.55;104175;1254;106889;-73
2024/03/11 04:01:19;;;;;;;18.20;10.00;;;;;;;4.07;57.33;99683.91;103631;1254;137171;-72
2024/03/11 04:03:46;;;;;;;16.70;9.40;;;;;;;4.06;57.56;99693.73;103752;1254;107404;-73
2024/03/11 04:06:13;;;;;;;13.90;9.40;;;;;;;4.04;57.44;99683.96;103507;1255;137097;-73
2024/03/11 04:08:40;;;;;;;13.90;9.10;;;;;;;4.03;57.57;99673.83;103491;1253;110192;-73
2024/03/11 04:11:07;;;;;;;16.70;9.40;;;;;;;4.01;57.37;99674.90;104001;1255;137489;-73
2024/03/11 04:13:34;;;;;;;18.00;9.10;;;;;;;4.01;57.44;99673.52;103574;1256;96472;-73
2024/03/11 04:16:07;;;;;;;16.10;10.00;;;;;;;4.01;57.77;99675.23;103910;1251;107789;-74
2024/03/11 04:18:34;;;;;;;15.10;9.10;;;;;;;3.99;57.78;99670.11;103579;1254;137360;-73
2024/03/11 04:21:05;;;;;;;17.80;9.80;;;;;;;3.98;57.59;99668.23;103693;1251;109942;-74
2024/03/11 04:23:32;;;;;;;15.40;9.40;;;;;;;3.99;57.91;99675.45;103823;1251;139536;-73
2024/03/11 04:26:00;;;;;;;16.40;9.60;;;;;;;3.98;57.49;99671.85;104769;1254;94766;-72
2024/03/11 04:28:28;;;;;;;16.90;10.30;;;;;;;3.98;57.70;99678.90;103587;1255;106859;-72
2024/03/11 04:30:56;;;;;;;14.60;9.90;;;;;;;3.99;57.69;99678.89;103519;1251;137265;-73
2024/03/11 04:33:23;;;;;;;17.50;9.60;;;;;;;3.98;57.68;99678.39;103746;1253;111477;-73
2024/03/11 04:35:50;;;;;;;14.60;9.40;;;;;;;3.97;57.62;99683.05;103481;1254;137122;-73
2024/03/11 04:38:19;;;;;;;16.40;10.40;;;;;;;3.92;57.79;99685.35;103705;1254;96467;-73
2024/03/11 04:40:47;;;;;;;15.90;9.60;;;;;;;3.93;57.59;99678.95;103916;1254;109212;-73
2024/03/11 04:43:14;;;;;;;15.90;9.50;;;;;;;3.92;57.69;99671.22;103451;1254;137045;-73
2024/03/11 04:45:42;;;;;;;19.00;9.00;;;;;;;3.91;57.83;99681.56;103571;1254;110064;-75
2024/03/11 04:48:10;;;;;;;16.80;10.10;;;;;;;3.89;57.71;99673.33;103652;1253;138175;-74
2024/03/11 04:50:38;;;;;;;18.40;9.90;;;;;;;3.88;57.85;99675.59;104081;1254;96571;-73
2024/03/11 04:53:09;;;;;;;18.00;9.50;;;;;;;3.87;57.81;99672.52;103665;1254;137341;-72
2024/03/11 04:55:37;;;;;;;19.80;10.00;;;;;;;3.86;58.03;99666.51;103521;1257;96431;-71
2024/03/11 04:58:04;;;;;;;13.20;9.60;;;;;;;3.86;57.91;99668.41;103647;1251;110538;-73
2024/03/11 05:00:32;;;;;;;15.80;9.70;;;;;;;3.85;57.74;99669.09;102959;1251;1003052;-72
2024/03/11 05:03:01;;;;;;;15.50;9.40;;;;;;;3.84;57.84;99663.09;103549;1252;96303;-73
2024/03/11 05:05:31;;;;;;;14.90;9.00;;;;;;;3.85;57.91;99674.95;103595;1256;137105;-72
2024/03/11 05:08:00;;;;;;;18.20;10.00;;;;;;;3.82;58.01;99670.70;103751;1251;96428;-73
2024/03/11 05:10:27;;;;;;;16.40;9.70;;;;;;;3.79;57.98;99674.86;103559;1250;110879;-73
2024/03/11 05:12:53;;;;;;;19.10;10.20;;;;;;;3.78;57.95;99670.58;103417;1252;1002776;-74
2024/03/11 05:15:21;;;;;;;13.50;9.30;;;;;;;3.78;58.22;99664.57;104859;1254;94451;-73
2024/03/11 05:17:48;;;;;;;16.90;9.90;;;;;;;3.75;58.13;99672.31;103768;1251;137659;-74
2024/03/11 05:20:16;;;;;;;17.60;9.30;;;;;;;3.76;58.11;99670.42;104191;1254;96299;-73
2024/03/11 05:22:43;;;;;;;13.60;8.70;;;;;;;3.78;58.13;99672.65;103636;1255;110605;-73
2024/03/11 05:25:14;;;;;;;13.60;8.70;;;;;;;3.77;58.21;99675.57;104061;1251;137195;-73
2024/03/11 05:27:41;;;;;;;16.50;9.40;;;;;;;3.76;58.22;99684.35;104006;1251;96446;-73
2024/03/11 05:30:10;;;;;;;15.70;9.20;;;;;;;3.74;58.24;99678.69;103476;1253;137456;-73
2024/03/11 05:32:37;;;;;;;17.30;9.40;;;;;;;3.74;58.42;99686.96;102883;1254;1002896;-74
2024/03/11 05:35:04;;;;;;;17.20;10.70;;;;;;;3.73;58.55;99689.38;103620;1254;137757;-75
2024/03/11 05:37:32;;;;;;;17.30;10.10;;;;;;;3.69;58.40;99679.12;103783;1254;107672;-75
2024/03/11 05:39:59;;;;;;;16.60;9.40;;;;;;;3.68;58.48;99679.30;104125;1254;96472;-74
2024/03/11 05:42:27;;;;;;;13.40;9.20;;;;;;;3.67;58.70;99684.48;104276;1252;136904;-74
2024/03/11 05:44:55;;;;;;;14.00;9.70;;;;;;;3.64;58.91;99684.01;103913;1253;96556;-73
2024/03/11 05:47:24;;;;;;;15.20;10.00;;;;;;;3.62;59.07;99685.58;103587;1253;137509;-73
2024/03/11 05:49:51;;;;;;;16.50;9.70;;;;;;;3.60;59.55;99685.61;103606;1255;107740;-75
2024/03/11 05:52:20;;;;;;;14.30;9.30;;;;;;;3.57;59.80;99683.90;104253;1253;95171;-70
2024/03/11 05:54:50;;;;;;;20.30;9.70;;;;;;;3.53;59.97;99683.10;103703;1254;138866;-73
2024/03/11 05:57:22;;;;;;;14.80;9.50;;;;;;;3.50;59.90;99686.59;103624;1254;96803;-73
2024/03/11 05:59:49;;;;;;;14.70;9.90;;;;;;;3.50;60.09;99695.86;103856;1251;137640;-71
2024/03/11 06:02:17;;;;;;;18.30;10.20;;;;;;;3.49;60.24;99685.55;103680;1254;107413;-72
2024/03/11 06:04:44;;;;;;;15.70;9.90;;;;;;;3.50;60.29;99692.77;103838;1251;94674;-73
2024/03/11 06:07:11;;;;;;;15.70;10.00;;;;;;;3.50;60.25;99695.52;102707;1254;1002968;-73
2024/03/11 06:09:38;;;;;;;13.00;9.30;;;;;;;3.52;60.59;99695.15;103695;1251;96430;-73
2024/03/11 06:12:07;;;;;;;19.40;10.30;;;;;;;3.52;60.60;99704.42;103716;1254;137174;-72
2024/03/11 06:14:34;;;;;;;15.50;10.40;;;;;;;3.53;60.74;99702.70;104254;1251;107706;-72
2024/03/11 06:17:05;;;;;;;14.70;10.00;;;;;;;3.52;60.82;99713.04;103602;1254;137721;-72
2024/03/11 06:19:32;;;;;;;19.10;10.80;;;;;;;3.51;61.21;99710.80;103505;1256;107495;-73
2024/03/11 06:21:59;;;;;;;14.90;9.40;;;;;;;3.48;61.40;99707.23;103706;1253;96981;-72
2024/03/11 06:24:28;;;;;;;18.90;10.30;;;;;;;3.44;61.56;99700.59;103094;1254;1003594;-72
2024/03/11 06:26:56;;;;;;;16.10;10.70;;;;;;;3.43;61.58;99712.98;103662;1254;106473;-73
2024/03/11 06:29:24;;;;;;;17.40;9.90;;;;;;;3.43;61.59;99706.27;103471;1254;138185;-74
2024/03/11 06:31:51;;;;;;;19.60;10.60;;;;;;;3.46;61.84;99716.20;103553;1254;108241;-72
2024/03/11 06:34:21;;;;;;;17.60;10.40;;;;;;;3.47;61.79;99714.29;103679;1255;95349;-78
2024/03/11 06:36:48;;;;;;;21.40;12.00;;;;;;;3.48;61.76;99716.01;103454;1254;137789;-69
2024/03/11 06:39:16;;;;;;;15.50;10.40;;;;;;;3.49;61.91;99719.42;103544;1253;108351;-67
2024/03/11 06:41:44;;;;;;;15.20;10.40;;;;;;;3.47;61.89;99720.31;103443;1254;138124;-70
2024/03/11 06:44:11;;;;;;;14.70;10.20;;;;;;;3.45;61.95;99722.23;103708;1256;107101;-74
2024/03/11 06:46:47;;;;;;;16.30;10.30;;;;;;;3.40;62.13;99713.17;103539;1254;96547;-72
2024/03/11 06:49:15;;;;;;;17.20;10.80;;;;;;;3.39;62.11;99721.42;103535;1253;138175;-71
2024/03/11 06:51:42;;;;;;;17.40;11.20;;;;;;;3.38;62.07;99725.39;103609;1254;108522;-71
2024/03/11 06:54:09;;;;;;;18.40;10.40;;;;;;;3.39;62.08;99719.37;103385;1252;137947;-75
2024/03/11 06:56:38;;;;;;;18.80;10.30;;;;;;;3.42;61.73;99719.17;103587;1251;107408;-74
2024/03/11 06:59:05;;;;;;;16.40;10.30;;;;;;;3.45;61.97;99721.89;103847;1251;139496;-72
2024/03/11 07:01:33;;;;;;;17.80;11.70;;;;;;;3.45;61.99;99731.52;103108;1251;1002507;-72
2024/03/11 07:04:01;;;;;;;17.60;11.20;;;;;;;3.46;61.98;99721.88;103620;1254;107416;-71
2024/03/11 07:06:27;;;;;;;15.50;11.30;;;;;;;3.47;62.21;99728.90;102944;1256;137263;-72
2024/03/11 07:08:54;;;;;;;17.20;11.10;;;;;;;3.48;62.63;99718.93;103190;1254;107806;-73
2024/03/11 07:11:21;;;;;;;19.90;11.30;;;;;;;3.46;62.76;99721.53;103967;1250;138354;-72
2024/03/11 07:13:51;;;;;;;18.40;11.50;;;;;;;3.45;63.07;99720.67;104586;1253;109517;-73
2024/03/11 07:16:18;;;;;;;20.40;12.00;;;;;;;3.44;63.53;99730.84;103489;1254;107774;-72
2024/03/11 07:18:46;;;;;;;19.30;12.50;;;;;;;3.39;64.09;99724.52;104089;1251;138879;-71
2024/03/11 07:21:13;;;;;;;17.40;11.20;;;;;;;3.37;64.20;99725.91;104783;1251;106616;-76
2024/03/11 07:23:40;;;;;;;18.90;11.20;;;;;;;3.35;64.52;99729.71;103723;1254;138182;-74
2024/03/11 07:26:07;;;;;;;20.40;11.70;;;;;;;3.33;64.64;99723.38;103754;1250;109784;-75
2024/03/11 07:28:35;;;;;;;20.10;12.50;;;;;;;3.32;65.04;99732.86;103890;1253;107464;-73
2024/03/11 07:31:02;;;;;;;16.70;11.90;;;;;;;3.28;65.66;99726.20;103841;1250;1002584;-74
2024/03/11 07:33:29;;;;;;;21.50;13.20;;;;;;;3.24;66.02;99730.54;103901;1254;107579;-76
2024/03/11 07:35:57;;;;;;;16.00;11.00;;;;;;;3.19;66.71;99737.97;103517;1254;137961;-74
2024/03/11 07:38:25;;;;;;;18.70;12.50;;;;;;;3.12;67.03;99738.56;103960;1253;1003311;-76
2024/03/11 07:40:53;;;;;;;20.60;12.70;;;;;;;3.08;67.59;99730.71;103707;1250;107842;-75
2024/03/11 07:43:19;;;;;;;20.10;12.00;;;;;;;3.03;68.40;99739.33;103648;1251;138878;-75
2024/03/11 07:45:46;;;;;;;20.20;12.50;;;;;;;3.01;68.61;99744.66;103603;1253;108148;-74
2024/03/11 07:48:13;;;;;;;21.00;12.30;;;;;;;2.99;68.92;99752.94;103507;1253;138134;-75
2024/03/11 07:50:41;;;;;;;17.20;11.50;;;;;;;2.98;69.38;99748.48;103038;1250;1003219;-77
2024/03/11 07:53:08;;;;;;;19.70;12.70;;;;;;;2.98;68.91;99755.52;103346;1254;138631;-76
2024/03/11 07:55:37;;;;;;;21.30;13.10;;;;;;;3.04;69.09;99754.79;103525;1256;96443;-75
2024/03/11 07:58:06;;;;;;;22.90;13.00;;;;;;;3.08;70.05;99760.09;103358;1254;107244;-77
2024/03/11 08:00:36;;;;;;;21.20;13.70;;;;;;;3.10;69.92;99755.60;103165;1252;137979;-76
2024/03/11 08:03:04;;;;;;;21.10;13.30;;;;;;;3.13;69.70;99759.52;103372;1253;110085;-77
2024/03/11 08:05:34;;;;;;;23.40;13.20;;;;;;;3.15;69.76;99758.45;103250;1251;138353;-77
2024/03/11 08:08:01;;;;;;;19.60;12.30;;;;;;;3.19;69.79;99752.23;103561;1254;96434;-77
2024/03/11 08:10:28;;;;;;;19.80;12.40;;;;;;;3.21;70.24;99755.13;104025;1254;107980;-78
2024/03/11 08:12:56;;;;;;;18.80;13.00;;;;;;;3.20;70.38;99753.59;103092;1254;138022;-78
2024/03/11 08:15:24;;;;;;;18.60;13.20;;;;;;;3.19;70.48;99764.60;104007;1253;109309;-77
2024/03/11 08:17:52;;;;;;;17.80;12.40;;;;;;;3.17;70.33;99753.80;103332;1256;138034;-77
2024/03/11 08:20:21;;;;;;;21.60;14.10;;;;;;;3.16;70.99;99762.23;103447;1251;96337;-76
2024/03/11 08:22:52;;;;;;;23.90;13.90;;;;;;;3.12;71.43;99771.38;103778;1251;107482;-77
2024/03/11 08:25:22;;;;;;;20.00;13.90;;;;;;;3.08;72.11;99757.16;103273;1253;137973;-77
2024/03/11 08:27:51;;;;;;;22.90;13.10;;;;;;;3.06;71.86;99768.01;102346;1253;1002462;-71
2024/03/11 08:30:20;;;;;;;22.00;13.20;;;;;;;3.05;72.19;99763.70;103233;1254;138733;-71
2024/03/11 08:32:48;;;;;;;23.10;13.90;;;;;;;3.04;72.10;99764.91;103457;1253;97174;-72
2024/03/11 08:35:21;;;;;;;20.80;13.40;;;;;;;3.07;72.21;99765.77;103350;1255;138503;-73
2024/03/11 08:37:49;;;;;;;22.30;13.70;;;;;;;3.07;71.96;99760.27;104633;1252;96061;-71
2024/03/11 08:40:17;;;;;;;23.60;14.60;;;;;;;3.13;71.58;99761.06;103752;1253;109409;-70
2024/03/11 08:42:45;;;;;;;22.50;13.60;;;;;;;3.18;71.35;99757.21;103197;1256;138059;-72
2024/03/11 08:45:13;;;;;;;22.40;13.20;;;;;;;3.25;71.40;99759.73;103818;1253;96829;-71
2024/03/11 08:47:41;;;;;;;22.30;12.80;;;;;;;3.31;71.18;99755.20;103723;1250;139833;-72
2024/03/11 08:50:12;;;;;;;17.90;12.40;;;;;;;3.38;70.62;99759.94;104197;1256;95178;-71
2024/03/11 08:52:39;;;;;;;19.10;12.00;;;;;;;3.47;70.40;99758.98;104782;1250;108955;-71
2024/03/11 08:55:07;;;;;;;23.40;12.40;;;;;;;3.54;70.12;99749.44;103528;1251;138567;-73
2024/03/11 08:57:37;;;;;;;17.90;12.20;;;;;;;3.62;69.62;99751.59;104305;1253;96456;-72
2024/03/11 09:00:06;;;;;;;23.80;12.50;;;;;;;3.72;69.56;99749.91;104666;1253;138068;-74
2024/03/11 09:02:33;;;;;;;20.50;12.70;;;;;;;3.81;69.12;99749.47;104713;1253;95204;-73
2024/03/11 09:05:00;;;;;;;20.90;12.70;;;;;;;3.92;68.64;99756.20;104762;1251;109082;-72
2024/03/11 09:07:27;;;;;;;19.60;13.40;;;;;;;3.99;68.03;99751.46;104683;1253;106640;-73
2024/03/11 09:09:56;;;;;;;18.80;13.10;;;;;;;4.12;67.91;99755.91;103361;1253;96513;-73
2024/03/11 09:12:23;;;;;;;18.40;13.00;;;;;;;4.25;67.98;99761.92;103307;1256;138329;-73
2024/03/11 09:14:54;;;;;;;21.70;12.70;;;;;;;4.34;67.60;99766.64;103408;1253;96453;-73
2024/03/11 09:17:21;;;;;;;18.80;12.30;;;;;;;4.40;67.66;99760.35;103335;1253;139466;-74
2024/03/11 09:19:48;;;;;;;20.00;12.80;;;;;;;4.43;67.75;99766.50;103449;1253;107823;-72
2024/03/11 09:22:18;;;;;;;22.20;13.50;;;;;;;4.40;67.55;99769.29;103469;1253;96489;-73
2024/03/11 09:24:45;;;;;;;22.90;12.10;;;;;;;4.37;67.61;99770.89;103187;1253;138147;-74
2024/03/11 09:27:12;;;;;;;21.20;12.50;;;;;;;4.38;67.77;99769.15;103383;1256;96336;-72
2024/03/11 09:29:39;;;;;;;24.10;13.90;;;;;;;4.36;68.01;99764.39;103514;1252;138018;-72
2024/03/11 09:32:08;;;;;;;16.90;12.60;;;;;;;4.29;68.30;99773.06;103721;1253;106711;-73
2024/03/11 09:34:36;;;;;;;24.20;13.60;;;;;;;4.25;68.43;99775.02;103875;1254;95437;-73
2024/03/11 09:37:03;;;;;;;24.50;13.90;;;;;;;4.23;68.80;99773.16;104616;1253;137855;-72
2024/03/11 09:39:29;;;;;;;17.00;12.30;;;;;;;4.20;69.28;99767.52;104458;1252;96447;-72
2024/03/11 09:42:05;;;;;;;19.00;12.80;;;;;;;4.19;69.37;99773.21;103261;1251;138069;-72
2024/03/11 09:44:32;;;;;;;20.20;13.30;;;;;;;4.17;69.61;99763.09;103306;1254;108839;-72
2024/03/11 09:47:00;;;;;;;17.90;12.40;;;;;;;4.17;69.70;99769.29;103466;1254;96348;-73
2024/03/11 09:49:27;;;;;;;21.00;12.10;;;;;;;4.15;70.07;99760.20;103356;1253;108409;-75
2024/03/11 09:51:55;;;;;;;20.30;12.90;;;;;;;4.12;70.29;99759.20;103373;1250;96415;-69
2024/03/11 09:54:24;;;;;;;30.40;12.30;;;;;;;4.11;70.20;99751.29;103148;1253;138527;-70
2024/03/11 09:56:53;;;;;;;19.10;12.80;;;;;;;4.17;70.74;99758.27;103318;1253;107898;-71
2024/03/11 09:59:24;;;;;;;20.20;13.90;;;;;;;4.16;70.80;99760.70;103927;1253;138158;-70
2024/03/11 10:01:53;;;;;;;21.50;13.60;;;;;;;4.15;71.00;99752.46;104709;1252;107918;-71
2024/03/11 10:04:22;;;;;;;19.70;11.90;;;;;;;4.16;71.21;99759.50;103648;1253;96331;-70
2024/03/11 10:06:58;;;;;;;20.40;11.80;;;;;;;4.16;71.26;99757.25;103131;1253;139077;-71
2024/03/11 10:09:28;;;;;;;22.20;12.80;;;;;;;4.17;71.48;99755.86;103375;1253;106432;-71
2024/03/11 10:12:08;;;;;;;26.10;13.60;;;;;;;4.19;71.90;99761.86;104156;1256;137272;-71
2024/03/11 10:14:36;;;;;;;19.90;12.40;;;;;;;4.15;73.04;99762.27;103911;1256;108074;-71
2024/03/11 10:17:21;;;;;;;20.60;13.10;;;;;;;4.06;73.93;99767.19;104084;1255;138300;-70
2024/03/11 10:19:51;;;;;;;20.40;11.90;;;;;;;3.96;74.44;99761.31;103529;1252;109144;-71
2024/03/11 10:22:26;;;;;;;26.10;12.60;;;;;;;3.89;75.09;99757.43;103487;1251;106917;-71
2024/03/11 10:24:55;;;;;;;20.90;13.30;;;;;;;3.84;75.61;99749.77;103330;1251;138040;-71
2024/03/11 10:27:23;;;;;;;21.60;12.80;;;;;;;3.82;75.74;99756.68;104061;1251;107009;-71
2024/03/11 10:29:51;;;;;;;23.60;13.20;;;;;;;3.82;75.83;99753.92;103644;1254;138602;-70
2024/03/11 10:32:35;;;;;;;19.80;12.50;;;;;;;3.82;76.82;99758.92;103441;1253;110636;-70
2024/03/11 10:35:03;;;;;;;20.90;12.90;;;;;;;3.82;76.69;99761.84;103634;1254;138100;-66
2024/03/11 10:37:30;;;;;;;19.60;12.70;;;;;;;3.82;76.52;99759.61;103369;1254;96481;-72
2024/03/11 10:40:00;;;;;;;19.60;13.00;;;;;;;3.80;76.97;99761.87;103383;1251;107624;-72
2024/03/11 10:42:32;;;;;;;23.60;13.10;;;;;;;3.80;76.89;99762.20;103245;1253;138006;-72
2024/03/11 10:45:05;;;;;;;22.60;13.50;;;;;;;3.82;77.08;99754.27;103627;1254;109348;-71
2024/03/11 10:47:32;;;;;;;21.80;12.90;;;;;;;3.85;76.77;99753.20;103748;1251;138206;-72
2024/03/11 10:50:01;;;;;;;21.40;13.30;;;;;;;3.86;77.06;99747.52;103360;1253;96959;-70
2024/03/11 10:52:33;;;;;;;22.00;13.00;;;;;;;3.89;76.34;99746.60;103932;1256;108612;-71
2024/03/11 10:55:02;;;;;;;20.70;13.00;;;;;;;3.96;76.57;99748.23;104147;1253;137955;-81
2024/03/11 10:57:43;;;;;;;22.10;13.30;;;;;;;3.99;76.47;99740.11;104010;1251;109460;-79
2024/03/11 11:00:20;;;;;;;23.10;13.70;;;;;;;4.07;75.95;99743.27;103278;1255;138027;-76
2024/03/11 11:02:53;;;;;;;21.50;13.20;;;;;;;4.12;76.27;99744.23;104792;1251;94407;-77
2024/03/11 11:05:32;;;;;;;23.90;14.50;;;;;;;4.18;75.96;99739.34;103833;1252;138601;-76
2024/03/11 11:08:02;;;;;;;20.70;12.60;;;;;;;4.29;76.02;99743.29;103362;1253;96535;-75
2024/03/11 11:10:35;;;;;;;21.90;13.40;;;;;;;4.36;76.06;99734.94;103421;1253;109927;-74
2024/03/11 11:13:05;;;;;;;22.60;12.50;;;;;;;4.39;76.04;99738.15;104616;1253;137943;-77
2024/03/11 11:15:36;;;;;;;20.30;13.20;;;;;;;4.36;75.56;99742.34;104765;1253;94507;-77
2024/03/11 11:18:07;;;;;;;23.70;13.50;;;;;;;4.34;75.73;99740.31;102757;1250;1003736;-76
2024/03/11 11:20:37;;;;;;;21.80;13.20;;;;;;;4.30;75.59;99747.92;103497;1253;96428;-76